createdAt,value
2023-01-06T00:01:32.259Z,72.85
2023-01-06T00:04:01.014Z,71.88
2023-01-06T00:06:31.267Z,72.98
2023-01-06T00:09:02.784Z,72.51
2023-01-06T00:11:31.633Z,72.93
2023-01-06T00:14:00.125Z,72.71
2023-01-06T00:16:28.336Z,71.84
2023-01-06T00:18:58.055Z,73.46
2023-01-06T00:21:26.945Z,72.94
2023-01-06T00:23:55.433Z,73.55
2023-01-06T00:26:24.256Z,73.52
2023-01-06T00:28:56.181Z,72.79
2023-01-06T00:31:26.499Z,72.60
2023-01-06T00:33:59.070Z,73.37
2023-01-06T00:36:27.385Z,73.15
2023-01-06T00:38:55.328Z,73.47
2023-01-06T00:41:42.335Z,73.35
2023-01-06T00:44:10.599Z,73.02
2023-01-06T00:46:38.846Z,73.00
2023-01-06T00:49:07.776Z,72.77
2023-01-06T00:51:37.922Z,72.64
2023-01-06T00:54:09.878Z,71.66
2023-01-06T00:56:46.902Z,73.34
2023-01-06T00:59:17.779Z,72.44
2023-01-06T01:01:47.604Z,71.90
2023-01-06T01:04:16.528Z,72.14
2023-01-06T01:06:45.688Z,72.08
2023-01-06T01:09:26.932Z,73.72
2023-01-06T01:12:10.627Z,72.68
2023-01-06T01:14:51.055Z,73.53
2023-01-06T01:17:31.134Z,71.98
2023-01-06T01:20:01.225Z,73.85
2023-01-06T01:22:31.068Z,73.80
2023-01-06T01:25:01.734Z,73.77
2023-01-06T01:27:29.657Z,71.85
2023-01-06T01:29:57.620Z,73.00
2023-01-06T01:32:26.027Z,72.29
2023-01-06T01:34:54.085Z,72.18
2023-01-06T01:37:21.997Z,72.92
2023-01-06T01:39:50.299Z,72.35
2023-01-06T01:42:20.990Z,74.90
2023-01-06T01:44:55.043Z,74.35
2023-01-06T01:47:26.057Z,73.46
2023-01-06T01:49:57.486Z,73.95
2023-01-06T01:52:26.058Z,73.60
2023-01-06T01:54:55.828Z,74.26
2023-01-06T01:57:30.159Z,73.95
2023-01-06T01:59:59.886Z,72.20
2023-01-06T02:02:30.952Z,73.66
2023-01-06T02:05:01.199Z,73.39
2023-01-06T02:07:29.169Z,74.97
2023-01-06T02:10:11.278Z,74.93
2023-01-06T02:12:40.500Z,73.81
2023-01-06T02:15:19.172Z,74.71
2023-01-06T02:18:03.539Z,74.79
2023-01-06T02:20:58.946Z,75.46
2023-01-06T02:23:33.098Z,75.68
2023-01-06T02:26:35.297Z,75.04
2023-01-06T02:29:25.192Z,73.91
2023-01-06T02:32:17.537Z,74.51
2023-01-06T02:34:54.591Z,73.06
2023-01-06T02:37:22.809Z,74.04
2023-01-06T02:40:13.383Z,75.02
2023-01-06T02:43:09.316Z,74.37
2023-01-06T02:45:54.247Z,73.98
2023-01-06T02:48:38.341Z,73.00
2023-01-06T02:51:19.119Z,73.20
2023-01-06T02:54:14.348Z,75.21
2023-01-06T02:56:49.730Z,74.78
2023-01-06T02:59:26.031Z,75.76
2023-01-06T03:01:55.279Z,75.12
2023-01-06T03:04:26.656Z,75.08
2023-01-06T03:06:56.848Z,75.05
2023-01-06T03:09:29.968Z,74.23
2023-01-06T03:12:01.118Z,75.04
2023-01-06T03:14:38.873Z,75.98
2023-01-06T03:17:06.928Z,73.38
2023-01-06T03:19:34.906Z,75.31
2023-01-06T03:22:04.037Z,74.98
2023-01-06T03:24:32.334Z,73.48
2023-01-06T03:27:00.334Z,72.36
2023-01-06T03:29:28.513Z,73.61
2023-01-06T03:31:59.847Z,73.00
2023-01-06T03:34:33.616Z,73.81
2023-01-06T03:37:11.609Z,74.35
2023-01-06T03:39:49.755Z,74.70
2023-01-06T03:42:52.210Z,74.27
2023-01-06T03:45:59.330Z,73.61
2023-01-06T03:48:49.459Z,74.73
2023-01-06T03:51:39.455Z,74.49
2023-01-06T03:54:37.187Z,73.23
2023-01-06T03:57:09.430Z,74.57
2023-01-06T03:59:43.415Z,73.37
2023-01-06T04:02:13.448Z,75.75
2023-01-06T04:04:42.043Z,74.61
2023-01-06T04:07:11.696Z,75.00
2023-01-06T04:09:39.889Z,74.41
2023-01-06T04:12:27.064Z,74.95
2023-01-06T04:14:55.062Z,74.52
2023-01-06T04:17:23.380Z,74.48
2023-01-06T04:19:52.013Z,73.60
2023-01-06T04:22:20.940Z,75.94
2023-01-06T04:24:49.309Z,75.53
2023-01-06T04:27:17.308Z,74.91
2023-01-06T04:29:45.580Z,73.97
2023-01-06T04:32:14.127Z,73.59
2023-01-06T04:34:42.395Z,75.47
2023-01-06T04:37:11.478Z,76.10
2023-01-06T04:39:39.786Z,75.29
2023-01-06T04:42:07.717Z,74.60
2023-01-06T04:44:35.804Z,75.12
2023-01-06T04:47:04.169Z,74.59
2023-01-06T04:49:32.099Z,76.13
2023-01-06T04:52:00.073Z,76.42
2023-01-06T04:54:28.458Z,75.80
2023-01-06T04:56:56.579Z,75.67
2023-01-06T04:59:24.612Z,76.47
2023-01-06T05:01:52.913Z,75.02
2023-01-06T05:04:20.990Z,74.48
2023-01-06T05:06:49.041Z,75.02
2023-01-06T05:09:17.424Z,74.56
2023-01-06T05:11:45.517Z,76.17
2023-01-06T05:14:13.594Z,76.08
2023-01-06T05:16:41.989Z,75.08
2023-01-06T05:19:10.289Z,75.30
2023-01-06T05:21:38.222Z,75.96
2023-01-06T05:24:06.668Z,77.09
2023-01-06T05:26:34.612Z,75.71
2023-01-06T05:29:02.632Z,74.05
2023-01-06T05:31:30.984Z,74.95
2023-01-06T05:33:58.920Z,76.38
2023-01-06T05:36:26.887Z,75.38
2023-01-06T05:38:55.298Z,75.61
2023-01-06T05:41:23.358Z,75.81
2023-01-06T05:43:51.263Z,77.55
2023-01-06T05:46:19.540Z,77.19
2023-01-06T05:48:47.577Z,76.07
2023-01-06T05:51:16.560Z,78.57
2023-01-06T05:53:47.387Z,76.95
2023-01-06T05:56:18.163Z,76.88
2023-01-06T05:58:48.164Z,76.63
2023-01-06T06:01:28.874Z,76.49
2023-01-06T06:03:57.485Z,76.77
2023-01-06T06:06:28.071Z,76.62
2023-01-06T06:08:55.959Z,76.02
2023-01-06T06:11:24.382Z,75.01
2023-01-06T06:13:56.759Z,76.96
2023-01-06T06:16:27.622Z,78.55
2023-01-06T06:18:57.517Z,78.37
2023-01-06T06:21:27.947Z,77.14
2023-01-06T06:23:56.987Z,76.54
2023-01-06T06:26:26.069Z,78.28
2023-01-06T06:28:54.450Z,79.75
2023-01-06T06:31:28.133Z,79.12
2023-01-06T06:33:58.605Z,78.96
2023-01-06T06:36:27.122Z,79.62
2023-01-06T06:38:55.427Z,79.83
2023-01-06T06:41:25.108Z,78.71
2023-01-06T06:43:53.452Z,81.09
2023-01-06T06:46:21.591Z,78.05
2023-01-06T06:48:51.016Z,78.44
2023-01-06T06:51:21.277Z,79.72
2023-01-06T06:53:50.289Z,78.41
2023-01-06T06:56:19.225Z,78.31
2023-01-06T06:58:47.334Z,77.78
2023-01-06T07:01:18.291Z,78.62
2023-01-06T07:03:46.446Z,79.11
2023-01-06T07:06:20.760Z,78.19
2023-01-06T07:08:50.059Z,77.99
2023-01-06T07:11:18.411Z,78.85
2023-01-06T07:13:46.711Z,76.03
2023-01-06T07:16:15.293Z,71.92
2023-01-06T07:18:43.277Z,70.49
2023-01-06T07:21:11.401Z,69.57
2023-01-06T07:23:39.550Z,70.11
2023-01-06T07:26:07.627Z,69.44
2023-01-06T07:28:35.659Z,69.10
2023-01-06T07:31:04.175Z,69.33
2023-01-06T07:33:32.309Z,69.87
2023-01-06T07:36:02.597Z,70.96
2023-01-06T07:38:31.831Z,71.78
2023-01-06T07:41:01.299Z,72.02
2023-01-06T07:43:29.579Z,70.23
2023-01-06T07:45:59.694Z,69.03
2023-01-06T07:48:28.858Z,69.21
2023-01-06T07:50:58.539Z,69.92
2023-01-06T07:53:26.846Z,68.48
2023-01-06T07:55:55.369Z,67.98
2023-01-06T07:58:27.092Z,66.78
2023-01-06T08:00:54.988Z,66.34
2023-01-06T08:03:23.417Z,66.34
2023-01-06T08:05:51.518Z,62.70
2023-01-06T08:08:19.474Z,65.90
2023-01-06T08:10:48.079Z,65.02
2023-01-06T08:13:16.038Z,63.83
2023-01-06T08:15:44.174Z,65.22
2023-01-06T08:18:12.583Z,62.86
2023-01-06T08:20:40.469Z,62.31
2023-01-06T08:23:08.458Z,61.89
2023-01-06T08:25:36.782Z,62.70
2023-01-06T08:28:05.037Z,63.53
2023-01-06T08:30:40.085Z,65.21
2023-01-06T08:33:08.469Z,64.99
2023-01-06T08:35:36.542Z,64.02
2023-01-06T08:38:04.631Z,62.08
2023-01-06T08:40:33.058Z,62.51
2023-01-06T08:43:01.139Z,63.97
2023-01-06T08:45:29.128Z,61.93
2023-01-06T08:47:57.570Z,59.96
2023-01-06T08:50:26.625Z,61.95
2023-01-06T08:52:55.473Z,62.79
2023-01-06T08:55:23.857Z,61.02
2023-01-06T08:57:54.738Z,62.05
2023-01-06T09:00:23.651Z,63.02
2023-01-06T09:02:52.069Z,64.08
2023-01-06T09:05:20.221Z,62.92
2023-01-06T09:07:49.897Z,64.15
2023-01-06T09:10:19.466Z,66.67
2023-01-06T09:12:47.755Z,67.44
2023-01-06T09:15:16.429Z,68.04
2023-01-06T09:17:44.551Z,69.46
2023-01-06T09:20:12.610Z,67.13
2023-01-06T09:22:41.038Z,66.78
2023-01-06T09:25:09.358Z,66.83
2023-01-06T09:27:37.552Z,67.81
2023-01-06T09:30:08.268Z,67.95
2023-01-06T09:32:36.440Z,68.96
2023-01-06T09:35:04.837Z,69.54
2023-01-06T09:37:33.168Z,70.42
2023-01-06T09:40:01.210Z,67.86
2023-01-06T09:43:16.921Z,66.77
2023-01-06T09:45:52.335Z,69.89
2023-01-06T09:48:26.689Z,69.72
2023-01-06T09:51:00.102Z,70.38
2023-01-06T09:53:35.643Z,69.83
2023-01-06T09:56:08.181Z,69.69
2023-01-06T09:59:14.527Z,71.25
2023-01-06T20:21:38.404Z,87.22
2023-01-06T20:24:08.596Z,86.20
2023-01-06T20:26:37.200Z,85.68
2023-01-06T20:29:06.161Z,80.48
2023-01-06T20:31:34.943Z,78.84
2023-01-06T20:34:03.006Z,78.38
2023-01-06T20:36:30.872Z,77.85
2023-01-06T20:38:59.427Z,78.09
2023-01-06T20:41:27.485Z,78.10
2023-01-06T20:43:55.517Z,80.62
2023-01-06T20:46:23.943Z,80.23
2023-01-06T20:48:51.998Z,81.55
2023-01-06T20:51:19.898Z,80.38
2023-01-06T20:53:49.466Z,80.33
2023-01-06T20:56:17.625Z,82.54
2023-01-06T20:58:45.520Z,82.96
2023-01-06T21:01:13.891Z,83.33
2023-01-06T21:03:41.967Z,82.92
2023-01-06T21:06:09.907Z,80.99
2023-01-06T21:08:38.478Z,78.82
2023-01-06T21:11:06.469Z,78.84
2023-01-06T21:13:34.428Z,79.50
2023-01-06T21:16:02.842Z,77.17
2023-01-06T21:18:30.886Z,76.87
2023-01-06T21:20:58.880Z,79.55
2023-01-06T21:23:27.266Z,83.12
2023-01-06T21:25:55.359Z,83.30
2023-01-06T21:28:23.574Z,84.56
2023-01-06T21:30:52.131Z,84.97
2023-01-06T21:33:21.732Z,84.55
2023-01-06T21:35:50.339Z,81.63
2023-01-06T21:38:18.716Z,81.43
2023-01-06T21:40:46.707Z,86.04
2023-01-06T21:43:14.697Z,85.29
2023-01-06T21:45:44.527Z,81.35
2023-01-06T21:48:13.460Z,82.18
2023-01-06T21:50:43.812Z,79.24
2023-01-06T21:53:12.739Z,80.09
2023-01-06T21:55:41.724Z,77.36
2023-01-06T21:58:10.478Z,80.17
2023-01-06T22:00:39.199Z,80.67
2023-01-06T22:03:07.673Z,77.67
2023-01-06T22:05:35.860Z,82.24
2023-01-06T22:08:04.657Z,81.73
2023-01-06T22:10:32.969Z,83.18
2023-01-06T22:13:01.088Z,83.63
2023-01-06T22:15:29.167Z,83.44
2023-01-06T22:17:59.377Z,82.42
2023-01-06T22:20:29.292Z,82.46
2023-01-06T22:23:05.432Z,82.60
2023-01-06T22:25:33.466Z,81.56
2023-01-06T22:28:03.394Z,81.81
2023-01-06T22:30:31.541Z,79.26
2023-01-06T22:32:59.650Z,79.31
2023-01-06T22:35:28.839Z,81.78
2023-01-06T22:37:56.977Z,82.37
2023-01-06T22:40:25.358Z,82.47
2023-01-06T22:42:53.953Z,82.56
2023-01-06T22:45:21.971Z,82.22
2023-01-06T22:47:50.012Z,81.21
2023-01-06T22:50:18.444Z,80.00
2023-01-06T22:52:46.480Z,80.09
2023-01-06T22:55:14.636Z,80.26
2023-01-06T22:57:42.969Z,80.45
2023-01-06T23:00:14.978Z,79.82
2023-01-06T23:02:43.740Z,79.32
2023-01-06T23:05:12.021Z,79.17
2023-01-06T23:07:41.745Z,78.61
2023-01-06T23:10:11.694Z,78.62
2023-01-06T23:12:40.963Z,77.83
2023-01-06T23:15:10.001Z,76.85
2023-01-06T23:17:38.329Z,77.41
2023-01-06T23:20:06.969Z,77.76
2023-01-06T23:22:35.297Z,73.32
2023-01-06T23:25:03.431Z,75.54
2023-01-06T23:27:31.622Z,75.62
2023-01-06T23:30:00.146Z,76.53
2023-01-06T23:32:28.135Z,77.10
2023-01-06T23:34:56.048Z,77.84
2023-01-06T23:37:24.561Z,79.16
2023-01-06T23:39:53.515Z,79.80
2023-01-06T23:42:21.557Z,79.95
2023-01-06T23:44:49.902Z,76.18
2023-01-06T23:47:17.838Z,71.47
2023-01-06T23:49:48.387Z,72.22
2023-01-06T23:52:16.642Z,73.18
2023-01-06T23:54:44.554Z,77.21
2023-01-06T23:57:12.548Z,79.66
2023-01-06T23:59:40.799Z,79.79
